createdAt,value
2022-08-28T00:00:37.016Z,34.75
2022-08-28T00:03:04.336Z,38.53
2022-08-28T00:05:32.815Z,38.38
2022-08-28T00:08:00.196Z,35.40
2022-08-28T00:10:27.411Z,33.67
2022-08-28T00:12:58.193Z,38.90
2022-08-28T00:15:31.941Z,36.85
2022-08-28T00:17:58.803Z,36.65
2022-08-28T00:20:26.855Z,34.88
2022-08-28T00:22:55.482Z,38.22
2022-08-28T00:25:24.658Z,37.97
2022-08-28T00:27:53.025Z,42.03
2022-08-28T00:30:25.588Z,40.67
2022-08-28T00:32:53.648Z,37.90
2022-08-28T00:35:20.787Z,40.60
2022-08-28T00:37:48.228Z,42.53
2022-08-28T00:40:18.601Z,40.85
2022-08-28T00:45:23.497Z,35.33
2022-08-28T00:47:50.426Z,34.20
2022-08-28T00:50:19.404Z,35.45
2022-08-28T00:52:48.398Z,36.05
2022-08-28T00:55:18.640Z,38.88
2022-08-28T00:57:49.246Z,35.22
2022-08-28T01:00:32.728Z,36.67
2022-08-28T01:02:59.885Z,35.70
2022-08-28T01:05:28.723Z,38.35
2022-08-28T01:07:57.497Z,31.30
2022-08-28T01:10:25.918Z,35.78
2022-08-28T01:12:54.758Z,36.17
2022-08-28T01:15:24.942Z,39.72
2022-08-28T01:17:56.455Z,38.05
2022-08-28T01:20:26.064Z,36.00
2022-08-28T01:23:01.841Z,37.33
2022-08-28T01:25:31.903Z,37.58
2022-08-28T01:27:58.818Z,39.70
2022-08-28T01:30:25.769Z,34.20
2022-08-28T01:32:55.504Z,33.95
2022-08-28T01:35:29.464Z,37.97
2022-08-28T01:40:30.402Z,37.38
2022-08-28T01:43:09.235Z,36.00
2022-08-28T01:45:37.710Z,38.92
2022-08-28T01:48:06.453Z,34.22
2022-08-28T01:50:33.788Z,41.03
2022-08-28T01:53:01.215Z,43.08
2022-08-28T01:57:56.208Z,37.78
2022-08-28T02:00:26.933Z,39.53
2022-08-28T02:02:56.304Z,39.97
2022-08-28T02:05:25.120Z,37.22
2022-08-28T02:07:52.532Z,35.65
2022-08-28T02:10:20.184Z,37.92
2022-08-28T02:12:46.717Z,35.50
2022-08-28T02:15:13.258Z,39.33
2022-08-28T02:17:39.924Z,38.47
2022-08-28T02:20:07.451Z,39.28
2022-08-28T02:22:35.439Z,37.10
2022-08-28T02:25:03.406Z,42.28
2022-08-28T02:27:30.977Z,39.95
2022-08-28T02:29:58.853Z,37.17
2022-08-28T02:32:26.353Z,41.75
2022-08-28T02:34:54.029Z,49.05
2022-08-28T02:37:21.685Z,41.40
2022-08-28T02:39:48.388Z,42.72
2022-08-28T02:42:15.762Z,45.65
2022-08-28T02:44:42.914Z,46.83
2022-08-28T02:47:09.533Z,41.58
2022-08-28T02:49:36.518Z,41.60
2022-08-28T02:52:03.808Z,42.13
2022-08-28T02:54:31.017Z,40.95
2022-08-28T02:56:58.573Z,37.35
2022-08-28T02:59:25.680Z,43.28
2022-08-28T03:01:52.910Z,40.45
2022-08-28T03:04:19.616Z,40.72
2022-08-28T03:06:46.221Z,41.33
2022-08-28T03:09:12.797Z,41.28
2022-08-28T03:11:41.366Z,37.65
2022-08-28T03:14:08.236Z,35.47
2022-08-28T03:16:34.959Z,38.83
2022-08-28T03:19:01.612Z,37.65
2022-08-28T03:21:28.204Z,38.13
2022-08-28T03:23:54.949Z,37.33
2022-08-28T03:26:21.860Z,39.00
2022-08-28T03:28:51.215Z,42.42
2022-08-28T03:31:20.929Z,40.35
2022-08-28T03:33:48.116Z,38.03
2022-08-28T03:36:18.836Z,43.20
2022-08-28T03:38:45.438Z,42.35
2022-08-28T03:41:13.305Z,38.15
2022-08-28T03:43:40.133Z,37.75
2022-08-28T03:46:07.492Z,36.42
2022-08-28T03:48:36.746Z,40.63
2022-08-28T03:51:13.587Z,38.13
2022-08-28T03:53:42.535Z,39.92
2022-08-28T03:56:16.117Z,42.70
2022-08-28T03:58:43.137Z,41.97
2022-08-28T04:01:10.079Z,37.17
2022-08-28T04:03:36.832Z,42.28
2022-08-28T04:06:03.575Z,37.08
2022-08-28T04:08:30.186Z,41.05
2022-08-28T04:10:57.017Z,34.30
2022-08-28T04:13:23.654Z,34.05
2022-08-28T04:15:58.968Z,37.47
2022-08-28T04:18:27.056Z,38.15
2022-08-28T04:21:02.440Z,39.35
2022-08-28T04:23:29.783Z,36.65
2022-08-28T04:25:56.391Z,36.00
2022-08-28T04:28:24.152Z,40.72
2022-08-28T04:30:55.075Z,36.28
2022-08-28T04:33:22.797Z,35.55
2022-08-28T04:35:49.407Z,36.65
2022-08-28T04:38:16.271Z,38.67
2022-08-28T04:40:43.173Z,37.38
2022-08-28T04:43:10.068Z,37.20
2022-08-28T04:45:41.087Z,36.88
2022-08-28T04:48:10.463Z,34.10
2022-08-28T04:50:44.491Z,37.47
2022-08-28T04:53:11.376Z,34.40
2022-08-28T04:55:53.866Z,35.05
2022-08-28T04:58:23.798Z,32.45
2022-08-28T05:00:51.853Z,36.72
2022-08-28T05:05:53.253Z,29.85
2022-08-28T05:08:23.348Z,33.92
2022-08-28T05:10:50.816Z,36.72
2022-08-28T05:13:20.982Z,34.17
2022-08-28T05:15:50.227Z,32.67
2022-08-28T05:18:19.979Z,33.50
2022-08-28T05:20:48.177Z,32.55
2022-08-28T05:23:15.822Z,32.03
2022-08-28T05:25:44.599Z,31.80
2022-08-28T05:28:12.531Z,32.80
2022-08-28T05:30:41.088Z,33.90
2022-08-28T05:33:08.783Z,25.90
2022-08-28T05:35:38.352Z,35.15
2022-08-28T05:38:06.305Z,31.58
2022-08-28T05:40:33.267Z,30.48
2022-08-28T05:42:59.900Z,30.80
2022-08-28T05:45:26.556Z,30.05
2022-08-28T05:47:53.413Z,29.83
2022-08-28T05:50:20.153Z,31.90
2022-08-28T05:52:47.397Z,30.33
2022-08-28T05:55:14.091Z,31.77
2022-08-28T05:57:41.031Z,30.60
2022-08-28T06:00:13.638Z,26.98
2022-08-28T06:02:41.913Z,27.05
2022-08-28T06:05:09.335Z,27.08
2022-08-28T06:07:41.016Z,26.75
2022-08-28T06:10:10.446Z,27.77
2022-08-28T06:12:37.932Z,26.45
2022-08-28T06:15:05.595Z,26.52
2022-08-28T06:17:32.185Z,21.65
2022-08-28T06:19:58.779Z,23.70
2022-08-28T06:22:25.358Z,22.73
2022-08-28T06:24:51.983Z,22.45
2022-08-28T06:27:18.563Z,23.33
2022-08-28T06:29:45.748Z,22.65
2022-08-28T06:32:12.410Z,19.85
2022-08-28T06:34:39.384Z,22.52
2022-08-28T06:37:06.166Z,15.82
2022-08-28T06:39:33.075Z,18.13
2022-08-28T06:42:02.239Z,18.20
2022-08-28T06:44:28.906Z,18.25
2022-08-28T06:46:55.615Z,16.38
2022-08-28T06:49:22.485Z,19.48
2022-08-28T06:51:49.710Z,22.40
2022-08-28T06:54:22.151Z,20.33
2022-08-28T06:56:49.433Z,25.27
2022-08-28T06:59:16.153Z,20.45
2022-08-28T07:01:42.797Z,19.50
2022-08-28T07:04:11.696Z,19.13
2022-08-28T07:06:43.140Z,23.63
2022-08-28T07:09:13.732Z,21.30
2022-08-28T07:11:41.306Z,20.60
2022-08-28T07:14:07.910Z,19.15
2022-08-28T07:16:40.507Z,18.25
2022-08-28T07:19:08.602Z,19.63
2022-08-28T07:21:39.270Z,21.48
2022-08-28T07:24:07.114Z,17.88
2022-08-28T07:26:35.577Z,14.85
2022-08-28T07:29:10.159Z,15.02
2022-08-28T07:31:40.699Z,14.90
2022-08-28T07:34:07.765Z,15.07
2022-08-28T07:36:35.006Z,17.13
2022-08-28T07:39:01.616Z,14.38
2022-08-28T07:41:30.340Z,16.40
2022-08-28T07:44:16.403Z,15.93
2022-08-28T07:46:44.437Z,15.77
2022-08-28T07:49:11.836Z,13.48
2022-08-28T07:51:38.610Z,14.68
2022-08-28T07:54:05.384Z,18.10
2022-08-28T07:56:33.071Z,17.35
2022-08-28T07:59:01.151Z,14.50
2022-08-28T08:01:29.677Z,14.93
2022-08-28T08:04:01.304Z,14.07
2022-08-28T08:06:33.794Z,14.35
2022-08-28T08:09:01.747Z,13.05
2022-08-28T08:11:28.312Z,14.30
2022-08-28T08:14:03.887Z,14.27
2022-08-28T08:16:34.932Z,15.23
2022-08-28T08:19:02.671Z,12.63
2022-08-28T08:21:30.471Z,13.00
2022-08-28T08:23:58.214Z,13.60
2022-08-28T08:26:27.966Z,15.25
2022-08-28T08:28:54.695Z,14.70
2022-08-28T08:31:27.406Z,14.90
2022-08-28T08:34:01.975Z,16.20
2022-08-28T08:36:29.929Z,14.35
2022-08-28T08:38:59.349Z,14.55
2022-08-28T08:41:31.151Z,17.10
2022-08-28T08:44:48.334Z,14.30
2022-08-28T08:47:27.178Z,17.15
2022-08-28T08:50:09.402Z,15.43
2022-08-28T08:52:41.835Z,14.85
2022-08-28T08:55:31.420Z,13.43
2022-08-28T08:58:05.520Z,13.73
2022-08-28T09:00:36.979Z,14.98
2022-08-28T09:03:15.649Z,15.48
2022-08-28T09:05:48.775Z,15.68
2022-08-28T09:08:21.563Z,14.77
2022-08-28T09:10:55.751Z,18.75
2022-08-28T09:13:48.834Z,13.52
2022-08-28T09:16:31.683Z,15.90
2022-08-28T09:18:59.277Z,11.93
2022-08-28T09:21:32.739Z,13.95
2022-08-28T09:24:05.606Z,14.43
2022-08-28T09:26:33.900Z,11.68
2022-08-28T09:29:16.296Z,14.98
2022-08-28T09:31:44.047Z,13.70
2022-08-28T09:34:22.755Z,14.70
2022-08-28T09:36:50.208Z,14.07
2022-08-28T09:42:33.805Z,14.50
2022-08-28T09:45:20.997Z,13.40
2022-08-28T09:47:58.249Z,15.45
2022-08-28T09:50:41.678Z,14.23
2022-08-28T09:53:14.107Z,12.32
2022-08-28T09:55:59.416Z,12.10
2022-08-28T09:58:40.783Z,14.85
2022-08-28T10:01:25.625Z,11.40
2022-08-28T10:04:08.505Z,13.13
2022-08-28T10:06:37.042Z,12.00
2022-08-28T10:09:16.553Z,14.52
2022-08-28T10:12:05.011Z,11.07
2022-08-28T10:15:05.285Z,13.30
2022-08-28T10:17:58.709Z,10.45
2022-08-28T10:20:37.387Z,11.73
2022-08-28T10:23:24.516Z,11.07
2022-08-28T10:26:09.549Z,11.48
2022-08-28T10:28:45.297Z,11.90
2022-08-28T10:31:31.676Z,11.60
2022-08-28T10:34:22.446Z,13.27
2022-08-28T10:37:00.864Z,9.43
2022-08-28T10:39:45.999Z,11.75
2022-08-28T10:42:12.810Z,12.77
2022-08-28T10:44:49.881Z,10.70
2022-08-28T10:47:18.789Z,13.25
2022-08-28T10:49:47.373Z,13.82
2022-08-28T10:52:22.887Z,12.77
2022-08-28T10:54:57.686Z,12.65
2022-08-28T10:57:39.670Z,14.98
2022-08-28T11:00:14.723Z,12.27
2022-08-28T11:02:46.386Z,10.43
2022-08-28T11:05:13.523Z,10.27
2022-08-28T11:07:44.851Z,13.30
2022-08-28T11:10:29.799Z,13.25
2022-08-28T11:12:56.499Z,12.05
2022-08-28T11:15:36.438Z,9.88
2022-08-28T11:18:15.809Z,10.75
2022-08-28T11:20:44.565Z,10.60
2022-08-28T11:23:23.726Z,11.18
2022-08-28T11:25:58.750Z,9.65
2022-08-28T11:28:25.641Z,12.07
2022-08-28T11:30:58.263Z,12.38
2022-08-28T11:33:42.492Z,12.15
2022-08-28T11:36:29.931Z,11.30
2022-08-28T11:38:57.515Z,10.20
2022-08-28T11:41:38.936Z,11.30
2022-08-28T11:44:14.613Z,15.15
2022-08-28T11:46:47.908Z,10.73
2022-08-28T11:49:26.433Z,9.25
2022-08-28T11:52:01.979Z,8.93
2022-08-28T11:55:02.422Z,9.82
2022-08-28T11:57:55.220Z,9.60
2022-08-28T12:00:28.870Z,9.57
2022-08-28T12:03:09.189Z,12.38
2022-08-28T12:05:39.356Z,10.23
2022-08-28T12:08:06.008Z,11.73
2022-08-28T12:10:32.501Z,10.75
2022-08-28T12:13:07.388Z,9.20
2022-08-28T12:15:34.115Z,11.63
2022-08-28T12:18:22.440Z,11.70
2022-08-28T12:20:52.115Z,12.15
2022-08-28T12:23:41.704Z,12.73
2022-08-28T12:26:22.814Z,15.10
2022-08-28T12:29:01.825Z,9.50
2022-08-28T12:32:10.001Z,9.73
2022-08-28T12:34:45.758Z,14.68
2022-08-28T12:37:31.252Z,11.30
2022-08-28T12:40:19.381Z,9.68
2022-08-28T12:42:53.166Z,11.88
2022-08-28T12:45:36.365Z,10.15
2022-08-28T12:48:08.659Z,9.57
2022-08-28T12:50:38.197Z,11.45
2022-08-28T12:53:12.469Z,9.95
2022-08-28T12:55:40.236Z,11.45
2022-08-28T12:58:27.092Z,8.68
2022-08-28T13:03:22.252Z,11.77
2022-08-28T13:05:56.574Z,11.52
2022-08-28T13:08:23.782Z,10.55
2022-08-28T13:10:51.507Z,8.25
2022-08-28T13:13:36.727Z,10.70
2022-08-28T13:16:07.439Z,10.48
2022-08-28T13:18:43.014Z,15.40
2022-08-28T13:21:33.213Z,12.27
2022-08-28T13:24:21.141Z,9.23
2022-08-28T13:26:50.331Z,7.82
2022-08-28T13:29:19.969Z,9.57
2022-08-28T13:31:59.708Z,8.48
2022-08-28T13:34:34.535Z,9.48
2022-08-28T13:37:14.843Z,12.27
2022-08-28T13:39:47.020Z,6.43
2022-08-28T13:42:16.366Z,7.85
2022-08-28T13:44:49.229Z,11.27
2022-08-28T13:47:16.758Z,8.75
2022-08-28T13:49:43.816Z,11.15
2022-08-28T13:52:10.608Z,10.13
2022-08-28T13:54:38.089Z,7.75
2022-08-28T13:57:09.296Z,11.52
2022-08-28T13:59:35.949Z,7.65
2022-08-28T14:02:23.999Z,7.30
2022-08-28T14:04:50.727Z,9.43
2022-08-28T14:07:17.631Z,11.57
2022-08-28T14:09:44.262Z,11.65
2022-08-28T14:12:11.414Z,6.35
2022-08-28T14:14:40.190Z,8.20
2022-08-28T14:17:08.063Z,7.07
2022-08-28T14:19:34.726Z,8.07
2022-08-28T14:22:01.379Z,8.02
2022-08-28T14:24:29.341Z,8.27
2022-08-28T14:26:56.084Z,8.10
2022-08-28T14:29:22.735Z,8.30
2022-08-28T14:31:49.430Z,10.25
2022-08-28T14:34:19.260Z,7.25
2022-08-28T14:36:46.723Z,7.00
2022-08-28T14:41:46.117Z,7.60
2022-08-28T14:44:15.942Z,6.63
2022-08-28T14:46:44.245Z,9.40
2022-08-28T14:49:13.330Z,6.80
2022-08-28T14:51:41.471Z,7.68
2022-08-28T14:54:09.889Z,6.90
2022-08-28T14:56:36.666Z,8.65
2022-08-28T14:59:05.853Z,6.68
2022-08-28T15:01:40.426Z,5.32
2022-08-28T15:04:10.405Z,8.25
2022-08-28T15:06:37.103Z,5.47
2022-08-28T15:09:04.119Z,6.55
2022-08-28T15:11:31.024Z,8.65
2022-08-28T15:13:58.499Z,7.70
2022-08-28T15:16:30.519Z,9.02
2022-08-28T15:18:58.374Z,6.65
2022-08-28T15:21:32.604Z,7.15
2022-08-28T15:24:00.766Z,8.07
2022-08-28T15:26:28.421Z,8.80
2022-08-28T15:28:55.952Z,5.80
2022-08-28T15:31:24.631Z,6.72
2022-08-28T15:33:52.062Z,8.90
2022-08-28T15:36:19.730Z,7.78
2022-08-28T15:39:04.909Z,7.57
2022-08-28T15:41:31.756Z,8.02
2022-08-28T15:44:01.435Z,6.10
2022-08-28T15:46:33.709Z,5.85
2022-08-28T15:49:05.391Z,7.10
2022-08-28T15:51:36.056Z,5.75
2022-08-28T15:54:02.732Z,5.50
2022-08-28T15:56:29.377Z,7.03
2022-08-28T15:58:56.080Z,8.10
2022-08-28T16:01:22.820Z,6.47
2022-08-28T16:03:49.890Z,5.82
2022-08-28T16:06:19.959Z,6.32
2022-08-28T16:08:49.044Z,5.05
2022-08-28T16:11:21.036Z,5.30
2022-08-28T16:13:48.302Z,7.35
2022-08-28T16:16:15.474Z,7.25
2022-08-28T16:18:43.855Z,8.75
2022-08-28T16:21:15.754Z,6.80
2022-08-28T16:23:44.181Z,6.60
2022-08-28T16:26:14.126Z,7.60
2022-08-28T16:28:41.946Z,6.05
2022-08-28T16:31:11.182Z,8.65
2022-08-28T16:33:48.334Z,8.82
2022-08-28T16:36:23.711Z,6.72
2022-08-28T16:39:00.375Z,7.55
2022-08-28T16:41:32.821Z,5.95
2022-08-28T16:44:00.248Z,5.85
2022-08-28T16:48:55.237Z,6.93
2022-08-28T16:51:33.119Z,6.85
2022-08-28T16:54:04.009Z,7.40
2022-08-28T16:56:31.625Z,6.10
2022-08-28T16:58:59.645Z,6.28
2022-08-28T17:01:32.241Z,5.32
2022-08-28T17:04:01.032Z,5.00
2022-08-28T17:06:31.451Z,5.75
2022-08-28T17:08:59.670Z,5.88
2022-08-28T17:11:28.807Z,7.10
2022-08-28T17:13:57.473Z,10.48
2022-08-28T17:16:26.337Z,7.05
2022-08-28T17:18:55.862Z,7.03
2022-08-28T17:21:44.876Z,10.00
2022-08-28T17:24:22.533Z,5.38
2022-08-28T17:26:51.770Z,7.85
2022-08-28T17:29:19.776Z,6.53
2022-08-28T17:31:48.189Z,9.15
2022-08-28T17:34:15.660Z,7.05
2022-08-28T17:36:50.676Z,7.50
2022-08-28T17:39:25.633Z,6.97
2022-08-28T17:41:53.661Z,8.27
2022-08-28T17:44:21.627Z,6.40
2022-08-28T17:46:49.019Z,6.63
2022-08-28T17:49:20.372Z,6.45
2022-08-28T17:51:49.777Z,7.80
2022-08-28T17:54:21.385Z,7.95
2022-08-28T17:56:50.397Z,10.45
2022-08-28T17:59:18.778Z,7.65
2022-08-28T18:01:47.843Z,9.20
2022-08-28T18:04:21.611Z,11.10
2022-08-28T18:06:57.886Z,7.57
2022-08-28T18:09:26.648Z,6.97
2022-08-28T18:11:56.381Z,5.95
2022-08-28T18:14:24.431Z,7.78
2022-08-28T18:16:51.826Z,8.52
2022-08-28T18:19:19.763Z,6.70
2022-08-28T18:21:46.393Z,6.70
2022-08-28T18:24:13.196Z,7.07
2022-08-28T18:26:41.416Z,6.57
2022-08-28T18:29:08.046Z,6.18
2022-08-28T18:31:34.961Z,6.45
2022-08-28T18:34:01.869Z,6.80
2022-08-28T18:36:29.392Z,7.65
2022-08-28T18:38:56.187Z,9.15
2022-08-28T18:41:26.938Z,5.70
2022-08-28T18:44:09.378Z,8.65
2022-08-28T18:46:36.313Z,8.52
2022-08-28T18:49:03.813Z,7.20
2022-08-28T18:54:00.956Z,6.38
2022-08-28T18:56:29.569Z,7.20
2022-08-28T18:58:59.116Z,6.63
2022-08-28T19:01:25.888Z,8.20
2022-08-28T19:03:54.126Z,7.82
2022-08-28T19:06:20.856Z,8.30
2022-08-28T19:08:47.606Z,6.55
2022-08-28T19:11:14.777Z,8.73
2022-08-28T19:13:41.786Z,7.22
2022-08-28T19:16:08.745Z,9.02
2022-08-28T19:18:36.245Z,7.10
2022-08-28T19:21:08.834Z,7.00
2022-08-28T19:23:37.173Z,7.53
2022-08-28T19:26:05.580Z,8.45
2022-08-28T19:28:33.677Z,8.90
2022-08-28T19:31:00.348Z,6.25
2022-08-28T19:33:27.410Z,10.07
2022-08-28T19:35:55.254Z,9.10
2022-08-28T19:38:22.976Z,9.77
2022-08-28T19:43:17.243Z,7.80
2022-08-28T19:45:45.070Z,8.63
2022-08-28T19:48:12.318Z,8.88
2022-08-28T19:50:39.445Z,11.23
2022-08-28T19:53:06.787Z,7.95
2022-08-28T19:55:33.801Z,7.50
2022-08-28T19:58:04.160Z,8.18
2022-08-28T20:00:33.148Z,7.95
2022-08-28T20:03:00.221Z,10.70
2022-08-28T20:05:27.298Z,9.13
2022-08-28T20:07:54.353Z,8.57
2022-08-28T20:10:21.522Z,8.57
2022-08-28T20:12:48.941Z,11.85
2022-08-28T20:17:49.338Z,10.30
2022-08-28T20:20:19.275Z,8.25
2022-08-28T20:22:46.015Z,8.82
2022-08-28T20:25:13.341Z,7.70
2022-08-28T20:27:41.686Z,9.23
2022-08-28T20:30:10.904Z,8.25
2022-08-28T20:32:40.163Z,9.05
2022-08-28T20:35:12.079Z,11.27
2022-08-28T20:37:44.842Z,10.50
2022-08-28T20:40:17.360Z,8.25
2022-08-28T20:42:46.398Z,11.48
2022-08-28T20:45:18.325Z,11.60
2022-08-28T20:47:46.496Z,10.88
2022-08-28T20:50:14.271Z,9.73
2022-08-28T20:52:41.394Z,9.98
2022-08-28T20:55:08.692Z,8.30
2022-08-28T20:57:35.276Z,8.95
2022-08-28T21:00:05.680Z,9.25
2022-08-28T21:02:33.051Z,10.18
2022-08-28T21:04:59.934Z,8.65
2022-08-28T21:07:27.213Z,12.32
2022-08-28T21:12:38.730Z,8.88
2022-08-28T21:15:07.588Z,11.45
2022-08-28T21:17:34.453Z,10.43
2022-08-28T21:20:04.707Z,11.77
2022-08-28T21:22:33.001Z,9.55
2022-08-28T21:25:02.311Z,11.48
2022-08-28T21:27:28.952Z,9.25
2022-08-28T21:29:58.251Z,10.90
2022-08-28T21:32:25.980Z,8.88
2022-08-28T21:34:53.089Z,10.95
2022-08-28T21:37:20.192Z,9.10
2022-08-28T21:39:46.819Z,13.95
2022-08-28T21:42:13.690Z,11.23
2022-08-28T21:44:40.795Z,10.63
2022-08-28T21:47:17.926Z,11.88
2022-08-28T21:49:47.931Z,8.20
2022-08-28T21:52:14.546Z,15.23
2022-08-28T21:54:41.145Z,10.50
2022-08-28T21:57:07.755Z,10.65
2022-08-28T21:59:38.084Z,12.73
2022-08-28T22:02:05.338Z,15.25
2022-08-28T22:04:32.036Z,11.93
2022-08-28T22:06:58.679Z,13.02
2022-08-28T22:09:25.337Z,15.68
2022-08-28T22:11:51.857Z,12.10
2022-08-28T22:14:18.443Z,13.82
2022-08-28T22:16:45.126Z,13.70
2022-08-28T22:19:11.790Z,14.75
2022-08-28T22:21:56.734Z,11.90
2022-08-28T22:24:23.670Z,12.80
2022-08-28T22:26:50.392Z,10.52
2022-08-28T22:31:50.966Z,12.30
2022-08-28T22:34:17.685Z,12.93
2022-08-28T22:36:44.312Z,11.77
2022-08-28T22:39:10.945Z,14.43
2022-08-28T22:41:37.675Z,12.63
2022-08-28T22:44:04.694Z,13.48
2022-08-28T22:46:31.247Z,9.55
2022-08-28T22:49:02.889Z,11.45
2022-08-28T22:51:29.456Z,12.70
2022-08-28T22:53:56.112Z,11.27
2022-08-28T22:56:22.735Z,13.02
2022-08-28T22:58:49.331Z,11.65
2022-08-28T23:01:22.839Z,11.20
2022-08-28T23:03:50.004Z,15.00
2022-08-28T23:06:17.113Z,15.07
2022-08-28T23:08:43.828Z,14.55
2022-08-28T23:11:10.853Z,11.55
2022-08-28T23:13:37.984Z,12.65
2022-08-28T23:16:05.147Z,14.48
2022-08-28T23:18:46.340Z,10.43
2022-08-28T23:21:19.755Z,18.88
2022-08-28T23:23:46.620Z,10.70
2022-08-28T23:26:14.439Z,13.65
2022-08-28T23:28:41.334Z,14.25
2022-08-28T23:31:08.024Z,12.55
2022-08-28T23:33:34.595Z,14.48
2022-08-28T23:36:02.416Z,12.82
2022-08-28T23:38:29.028Z,13.38
2022-08-28T23:40:55.841Z,12.93
2022-08-28T23:43:23.585Z,13.30
2022-08-28T23:45:51.898Z,13.30
2022-08-28T23:48:18.647Z,16.08
2022-08-28T23:50:45.345Z,16.70
2022-08-28T23:53:12.099Z,14.20
2022-08-28T23:55:38.805Z,14.20
2022-08-28T23:58:06.941Z,11.73
